createdAt,value
2023-05-10T00:01:14.616Z,15.12
2023-05-10T00:05:33.125Z,15.12
2023-05-10T00:09:50.885Z,15.12
2023-05-10T00:14:08.498Z,15.12
2023-05-10T00:18:26.190Z,15.23
2023-05-10T00:22:43.809Z,15.07
2023-05-10T00:27:02.190Z,15.15
2023-05-10T00:31:19.839Z,15.11
2023-05-10T00:35:40.259Z,15.23
2023-05-10T00:39:57.887Z,15.22
2023-05-10T00:44:15.621Z,15.17
2023-05-10T00:48:33.350Z,15.11
2023-05-10T00:52:51.739Z,15.14
2023-05-10T00:57:09.876Z,15.11
2023-05-10T01:01:27.745Z,15.06
2023-05-10T01:05:45.364Z,15.13
2023-05-10T01:10:03.419Z,15.08
2023-05-10T01:14:21.600Z,15.09
2023-05-10T01:18:43.399Z,15.08
2023-05-10T01:23:28.506Z,15.10
2023-05-10T01:28:39.868Z,15.09
2023-05-10T01:33:18.892Z,15.07
2023-05-10T01:37:58.183Z,15.08
2023-05-10T01:42:22.484Z,15.00
2023-05-10T01:46:41.562Z,15.04
2023-05-10T01:50:59.933Z,14.96
2023-05-10T01:55:21.657Z,15.10
2023-05-10T01:59:41.990Z,14.99
2023-05-10T02:04:01.306Z,15.08
2023-05-10T02:08:20.104Z,14.92
2023-05-10T02:12:43.517Z,14.99
2023-05-10T02:17:03.171Z,14.88
2023-05-10T02:21:23.824Z,15.01
2023-05-10T02:25:43.885Z,14.90
2023-05-10T02:30:02.693Z,14.92
2023-05-10T02:34:22.815Z,14.91
2023-05-10T02:38:41.753Z,14.94
2023-05-10T02:43:02.665Z,14.90
2023-05-10T02:47:21.123Z,14.89
2023-05-10T02:51:44.892Z,14.87
2023-05-10T02:56:08.301Z,14.82
2023-05-10T03:00:27.195Z,14.91
2023-05-10T03:04:45.010Z,14.85
2023-05-10T03:09:04.511Z,14.93
2023-05-10T03:13:37.657Z,14.81
2023-05-10T03:18:39.836Z,14.90
2023-05-10T03:23:27.899Z,14.82
2023-05-10T03:27:46.531Z,14.92
2023-05-10T03:32:04.475Z,14.90
2023-05-10T03:36:22.323Z,15.00
2023-05-10T03:40:40.634Z,14.96
2023-05-10T03:44:58.401Z,15.06
2023-05-10T03:49:15.870Z,14.88
2023-05-10T03:53:33.760Z,15.03
2023-05-10T03:57:51.391Z,15.05
2023-05-10T04:02:09.317Z,15.14
2023-05-10T04:06:27.149Z,15.07
2023-05-10T04:10:44.996Z,15.19
2023-05-10T04:15:02.833Z,15.14
2023-05-10T04:19:20.609Z,15.21
2023-05-10T04:23:39.595Z,15.18
2023-05-10T04:27:57.340Z,15.29
2023-05-10T04:32:15.056Z,15.28
2023-05-10T04:36:33.934Z,15.35
2023-05-10T04:40:52.007Z,15.32
2023-05-10T04:45:11.238Z,15.37
2023-05-10T04:49:29.279Z,15.36
2023-05-10T04:53:57.663Z,15.39
2023-05-10T04:58:22.799Z,15.43
2023-05-10T05:02:49.526Z,15.50
2023-05-10T05:07:07.276Z,15.50
2023-05-10T05:11:25.224Z,15.55
2023-05-10T05:15:42.900Z,15.51
2023-05-10T05:20:00.654Z,15.56
2023-05-10T05:24:18.318Z,15.65
2023-05-10T05:28:38.619Z,15.67
2023-05-10T05:32:56.355Z,15.70
2023-05-10T05:37:19.289Z,15.68
2023-05-10T05:41:37.014Z,15.74
2023-05-10T05:45:55.274Z,15.82
2023-05-10T05:50:13.009Z,15.78
2023-05-10T05:54:32.330Z,15.84
2023-05-10T05:58:50.848Z,15.83
2023-05-10T06:03:09.224Z,15.88
2023-05-10T06:07:26.983Z,15.91
2023-05-10T06:11:44.762Z,15.93
2023-05-10T06:16:04.074Z,16.01
2023-05-10T06:20:21.781Z,15.97
2023-05-10T06:24:39.388Z,16.04
2023-05-10T06:28:57.844Z,15.98
2023-05-10T06:33:17.145Z,16.09
2023-05-10T06:37:35.805Z,16.07
2023-05-10T06:41:53.689Z,16.11
2023-05-10T06:46:11.570Z,16.15
2023-05-10T06:50:28.675Z,16.06
2023-05-10T06:54:46.510Z,16.16
2023-05-10T06:59:04.273Z,16.18
2023-05-10T07:03:22.176Z,16.19
2023-05-10T07:07:39.933Z,16.27
2023-05-10T07:11:59.223Z,16.21
2023-05-10T07:16:16.934Z,16.26
2023-05-10T07:20:34.848Z,16.27
2023-05-10T07:24:52.766Z,16.22
2023-05-10T07:29:11.381Z,16.32
2023-05-10T07:33:28.997Z,16.26
2023-05-10T07:37:46.731Z,16.40
2023-05-10T07:42:04.502Z,16.27
2023-05-10T07:46:22.404Z,16.30
2023-05-10T07:50:40.100Z,16.38
2023-05-10T07:54:58.349Z,16.36
2023-05-10T07:59:18.234Z,16.44
2023-05-10T08:03:36.292Z,16.41
2023-05-10T08:07:53.872Z,16.47
2023-05-10T08:12:11.580Z,16.52
2023-05-10T08:16:30.180Z,16.50
2023-05-10T08:20:47.865Z,16.56
2023-05-10T08:25:06.565Z,16.57
2023-05-10T08:29:25.356Z,16.60
2023-05-10T08:33:45.948Z,16.62
2023-05-10T08:38:03.452Z,16.63
2023-05-10T08:42:26.278Z,16.74
2023-05-10T08:46:47.449Z,16.69
2023-05-10T08:51:05.729Z,16.65
2023-05-10T08:55:25.150Z,16.70
2023-05-10T08:59:42.917Z,16.86
2023-05-10T09:04:00.699Z,16.72
2023-05-10T09:08:18.994Z,16.80
2023-05-10T09:12:37.061Z,16.75
2023-05-10T09:16:56.699Z,16.84
2023-05-10T09:21:15.009Z,16.87
2023-05-10T09:25:34.942Z,16.88
2023-05-10T09:29:55.553Z,17.09
2023-05-10T09:34:20.717Z,16.94
2023-05-10T09:38:53.825Z,17.13
2023-05-10T09:43:12.372Z,17.06
2023-05-10T09:47:29.885Z,17.08
2023-05-10T09:51:48.011Z,17.16
2023-05-10T09:56:05.632Z,17.32
2023-05-10T10:00:23.330Z,17.39
2023-05-10T10:04:42.001Z,17.36
2023-05-10T10:09:00.217Z,17.38
2023-05-10T10:13:18.478Z,17.53
2023-05-10T10:17:39.880Z,17.59
2023-05-10T10:21:57.491Z,17.61
2023-05-10T10:26:16.660Z,17.62
2023-05-10T10:30:38.547Z,17.63
2023-05-10T10:34:57.948Z,17.75
2023-05-10T10:39:16.297Z,17.91
2023-05-10T10:43:34.127Z,18.11
2023-05-10T10:48:24.139Z,18.21
2023-05-10T10:52:43.620Z,18.43
2023-05-10T10:57:14.873Z,18.65
2023-05-10T11:01:36.795Z,19.19
2023-05-10T11:05:59.854Z,23.25
2023-05-10T11:10:22.543Z,24.34
2023-05-10T11:14:41.321Z,24.63
2023-05-10T11:19:09.544Z,21.74
2023-05-10T11:23:33.343Z,23.82
2023-05-10T11:27:51.546Z,25.25
2023-05-10T11:32:09.387Z,25.40
2023-05-10T11:36:37.613Z,25.33
2023-05-10T11:40:55.197Z,23.80
2023-05-10T11:45:13.197Z,24.34
2023-05-10T11:49:31.000Z,25.30
2023-05-10T11:53:48.934Z,25.20
2023-05-10T11:58:07.580Z,26.43
2023-05-10T12:02:26.002Z,26.10
2023-05-10T12:06:43.907Z,25.54
2023-05-10T12:11:11.834Z,26.38
2023-05-10T12:15:29.326Z,26.67
2023-05-10T12:19:47.715Z,26.69
2023-05-10T12:24:06.257Z,26.77
2023-05-10T12:28:24.147Z,27.42
2023-05-10T12:32:45.570Z,27.05
2023-05-10T12:37:05.399Z,27.55
2023-05-10T12:41:22.976Z,27.44
2023-05-10T12:45:40.788Z,27.55
2023-05-10T12:49:58.465Z,24.81
2023-05-10T12:54:16.157Z,27.20
2023-05-10T12:58:36.055Z,27.22
2023-05-10T13:02:54.862Z,27.00
2023-05-10T13:07:12.528Z,27.26
2023-05-10T13:11:30.288Z,26.98
2023-05-10T13:15:47.893Z,27.10
2023-05-10T13:20:06.278Z,27.34
2023-05-10T13:24:23.877Z,27.15
2023-05-10T13:28:41.965Z,26.89
2023-05-10T13:32:59.521Z,27.06
2023-05-10T13:37:17.407Z,26.99
2023-05-10T13:41:35.190Z,26.49
2023-05-10T13:45:53.699Z,26.93
2023-05-10T13:50:11.454Z,26.21
2023-05-10T13:54:31.640Z,24.55
2023-05-10T13:58:49.273Z,26.20
2023-05-10T14:03:08.196Z,25.59
2023-05-10T14:07:25.824Z,24.32
2023-05-10T14:11:44.561Z,21.53
2023-05-10T14:16:02.283Z,24.31
2023-05-10T14:20:20.017Z,23.78
2023-05-10T14:24:39.524Z,22.77
2023-05-10T14:28:57.520Z,20.52
2023-05-10T14:33:15.546Z,19.90
2023-05-10T14:37:33.866Z,19.49
2023-05-10T14:41:52.640Z,19.32
2023-05-10T14:46:10.593Z,19.09
2023-05-10T14:50:36.503Z,18.87
2023-05-10T14:54:55.133Z,18.71
2023-05-10T14:59:12.646Z,18.78
2023-05-10T15:03:31.774Z,18.68
2023-05-10T15:07:49.852Z,18.48
2023-05-10T15:12:07.644Z,18.41
2023-05-10T15:16:25.515Z,18.59
2023-05-10T15:20:43.372Z,18.37
2023-05-10T15:25:00.962Z,18.28
2023-05-10T15:29:21.290Z,18.22
2023-05-10T15:33:39.753Z,18.41
2023-05-10T15:37:57.601Z,18.27
2023-05-10T15:42:15.163Z,18.20
2023-05-10T15:46:32.750Z,18.15
2023-05-10T15:50:50.585Z,18.06
2023-05-10T15:55:13.347Z,18.22
2023-05-10T15:59:31.148Z,18.01
2023-05-10T16:03:48.968Z,17.92
2023-05-10T16:08:06.538Z,17.89
2023-05-10T16:12:23.929Z,18.05
2023-05-10T16:16:41.614Z,17.88
2023-05-10T16:20:59.726Z,17.80
2023-05-10T16:25:17.385Z,17.66
2023-05-10T16:29:35.396Z,17.86
2023-05-10T16:33:53.025Z,17.71
2023-05-10T16:38:11.616Z,17.58
2023-05-10T16:42:29.245Z,17.53
2023-05-10T16:46:47.245Z,17.51
2023-05-10T16:51:04.950Z,17.62
2023-05-10T16:55:25.473Z,17.47
2023-05-10T16:59:44.050Z,17.34
2023-05-10T17:04:03.000Z,17.40
2023-05-10T17:08:21.855Z,17.52
2023-05-10T17:12:39.585Z,17.38
2023-05-10T17:16:57.343Z,17.29
2023-05-10T17:21:15.140Z,17.21
2023-05-10T17:25:32.722Z,17.15
2023-05-10T17:29:50.405Z,17.21
2023-05-10T17:34:08.311Z,17.24
2023-05-10T17:38:26.194Z,17.07
2023-05-10T17:42:43.925Z,17.03
2023-05-10T17:47:02.241Z,17.21
2023-05-10T17:51:20.879Z,17.01
2023-05-10T17:55:42.396Z,16.98
2023-05-10T18:00:00.220Z,17.03
2023-05-10T18:04:18.038Z,16.93
2023-05-10T18:08:38.790Z,16.90
2023-05-10T18:12:58.720Z,16.97
2023-05-10T18:17:16.714Z,16.86
2023-05-10T18:21:34.554Z,16.87
2023-05-10T18:25:52.625Z,16.92
2023-05-10T18:30:12.601Z,16.74
2023-05-10T18:34:30.387Z,16.82
2023-05-10T18:38:48.123Z,16.87
2023-05-10T18:43:23.771Z,16.74
2023-05-10T18:47:41.537Z,16.77
2023-05-10T18:51:59.411Z,16.78
2023-05-10T18:56:17.040Z,16.73
2023-05-10T19:00:34.774Z,16.83
2023-05-10T19:04:52.516Z,16.70
2023-05-10T19:09:10.278Z,16.72
2023-05-10T19:13:29.034Z,16.78
2023-05-10T19:17:46.797Z,16.67
2023-05-10T19:22:04.837Z,16.68
2023-05-10T19:26:22.714Z,16.79
2023-05-10T19:30:40.233Z,16.65
2023-05-10T19:34:58.053Z,16.72
2023-05-10T19:39:16.856Z,16.78
2023-05-10T19:43:37.002Z,16.66
2023-05-10T19:47:54.966Z,16.68
2023-05-10T19:52:12.848Z,16.77
2023-05-10T19:56:33.442Z,16.70
2023-05-10T20:00:51.282Z,16.66
2023-05-10T20:05:09.349Z,16.82
2023-05-10T20:09:27.202Z,16.63
2023-05-10T20:13:44.753Z,16.76
2023-05-10T20:18:03.934Z,16.83
2023-05-10T20:22:21.549Z,16.69
2023-05-10T20:26:39.369Z,16.72
2023-05-10T20:30:56.908Z,16.75
2023-05-10T20:35:14.543Z,16.74
2023-05-10T20:39:32.081Z,16.67
2023-05-10T20:43:49.835Z,16.75
2023-05-10T20:48:07.906Z,16.68
2023-05-10T20:52:25.608Z,16.71
2023-05-10T20:56:43.203Z,16.71
2023-05-10T21:01:02.563Z,16.62
2023-05-10T21:05:20.191Z,16.74
2023-05-10T21:09:37.981Z,16.71
2023-05-10T21:13:55.502Z,16.66
2023-05-10T21:18:13.677Z,16.67
2023-05-10T21:22:31.090Z,16.62
2023-05-10T21:26:48.789Z,16.62
2023-05-10T21:31:06.716Z,16.61
2023-05-10T21:35:24.360Z,16.59
2023-05-10T21:39:41.839Z,16.58
2023-05-10T21:43:59.556Z,16.52
2023-05-10T21:48:17.536Z,16.57
2023-05-10T21:52:35.193Z,16.55
2023-05-10T21:56:53.045Z,16.58
2023-05-10T22:01:10.886Z,16.58
2023-05-10T22:05:28.398Z,16.52
2023-05-10T22:09:46.133Z,16.56
2023-05-10T22:14:03.712Z,16.52
2023-05-10T22:18:21.552Z,16.51
2023-05-10T22:22:39.161Z,16.51
2023-05-10T22:26:56.777Z,16.48
2023-05-10T22:31:14.617Z,16.48
2023-05-10T22:35:32.263Z,16.44
2023-05-10T22:39:50.069Z,16.43
2023-05-10T22:44:08.626Z,16.43
2023-05-10T22:48:26.278Z,16.46
2023-05-10T22:52:44.037Z,16.43
2023-05-10T22:57:01.606Z,16.42
2023-05-10T23:01:19.389Z,16.42
2023-05-10T23:05:36.975Z,16.40
2023-05-10T23:09:54.668Z,16.40
2023-05-10T23:14:12.177Z,16.39
2023-05-10T23:18:31.093Z,16.35
2023-05-10T23:22:49.740Z,16.34
2023-05-10T23:27:07.808Z,16.32
2023-05-10T23:31:25.332Z,16.33
2023-05-10T23:35:42.941Z,16.37
2023-05-10T23:40:00.468Z,16.29
2023-05-10T23:44:19.181Z,16.26
2023-05-10T23:48:36.423Z,16.29
2023-05-10T23:52:54.489Z,16.27
2023-05-10T23:57:14.972Z,16.32
